Time;durP1;ratioP1;P1;durP2;ratioP2;P2;SDS_P1;SDS_P2;PMS_P1;PMS_P2;Temp;Humidity;BMP_temperature;BMP_pressure;BME280_temperature;BME280_humidity;BME280_pressure;Samples;Min_cycle;Max_cycle;Signal;HPM_P1;HPM_P2
2023/10/07 00:02:45;;;;;;;8.40;4.30;;;;;;;14.65;65.01;100402.05;130458;1256;127984;-63
2023/10/07 00:05:53;;;;;;;10.10;3.70;;;;;;;14.64;65.06;100399.02;130138;1257;115191;-63
2023/10/07 00:09:10;;;;;;;9.60;4.00;;;;;;;14.64;65.11;100394.19;130120;1254;114773;-64
2023/10/07 00:12:14;;;;;;;8.70;4.10;;;;;;;14.63;65.40;100392.28;130083;1272;114690;-64
2023/10/07 00:15:16;;;;;;;8.30;4.50;;;;;;;14.64;65.18;100389.37;130539;1272;114734;-63
2023/10/07 00:18:19;;;;;;;8.80;4.10;;;;;;;14.64;65.24;100381.61;130230;1275;114770;-65
2023/10/07 00:21:27;;;;;;;8.50;4.10;;;;;;;14.65;65.29;100372.03;130104;1252;115199;-61
2023/10/07 00:24:36;;;;;;;8.20;3.80;;;;;;;14.66;65.15;100368.34;130174;1254;114703;-64
2023/10/07 00:27:40;;;;;;;5.60;3.50;;;;;;;14.68;65.52;100368.98;130260;1254;114786;-64
2023/10/07 00:30:45;;;;;;;7.60;3.30;;;;;;;14.69;65.40;100365.67;130203;1257;114852;-63
2023/10/07 00:33:50;;;;;;;;;;;;;;;14.70;65.18;100358.23;130490;1275;128897;-63
2023/10/07 00:37:00;;;;;;;5.70;3.40;;;;;;;14.71;65.15;100354.58;130136;1275;114807;-64
2023/10/07 00:40:24;;;;;;;6.70;3.50;;;;;;;14.73;65.22;100351.58;129991;1257;114790;-64
2023/10/07 00:43:38;;;;;;;8.40;3.90;;;;;;;14.74;65.01;100350.58;130168;1256;114868;-63
2023/10/07 00:47:01;;;;;;;6.30;3.70;;;;;;;14.76;65.14;100342.77;130050;1254;115233;-63
2023/10/07 00:50:05;;;;;;;8.80;4.10;;;;;;;14.78;65.03;100346.23;129963;1260;128544;-64
2023/10/07 00:53:09;;;;;;;6.60;3.80;;;;;;;14.80;64.84;100341.63;130007;1275;115266;-63
2023/10/07 00:56:15;;;;;;;10.80;5.10;;;;;;;14.81;64.88;100336.88;130077;1254;115052;-62
2023/10/07 00:59:20;;;;;;;8.10;3.40;;;;;;;14.83;64.75;100328.27;130104;1254;114724;-64
2023/10/07 01:02:29;;;;;;;;;;;;;;;14.84;64.71;100322.08;129812;1259;115644;-63
2023/10/07 01:05:38;;;;;;;8.90;3.60;;;;;;;14.86;64.77;100319.61;129826;1275;128070;-62
2023/10/07 01:08:55;;;;;;;5.90;4.10;;;;;;;14.88;64.60;100312.81;130013;1254;116257;-61
2023/10/07 01:11:57;;;;;;;9.00;3.30;;;;;;;14.90;64.80;100305.13;130318;1256;114673;-63
2023/10/07 01:15:23;;;;;;;10.00;4.60;;;;;;;14.92;64.71;100299.27;130052;1254;116177;-65
2023/10/07 01:18:28;;;;;;;6.50;3.50;;;;;;;14.93;64.63;100305.83;130369;1262;114858;-63
2023/10/07 01:21:36;;;;;;;10.40;4.10;;;;;;;14.95;64.57;100300.50;129942;1272;128910;-63
2023/10/07 01:24:44;;;;;;;8.80;3.80;;;;;;;14.97;64.67;100295.88;130051;1275;115227;-62
2023/10/07 01:27:53;;;;;;;9.70;3.50;;;;;;;14.99;64.47;100293.55;129957;1258;114706;-64
2023/10/07 01:34:36;;;;;;;10.60;3.60;;;;;;;15.03;64.70;100283.23;129457;1260;114878;-62
2023/10/07 01:37:59;;;;;;;6.40;3.40;;;;;;;15.04;64.55;100279.55;129523;1263;128132;-62
2023/10/07 01:41:21;;;;;;;7.40;3.60;;;;;;;15.04;64.67;100271.98;129528;1281;115199;-63
2023/10/07 01:44:31;;;;;;;6.40;3.40;;;;;;;15.05;64.84;100270.85;129394;1281;114850;-64
2023/10/07 01:47:34;;;;;;;6.90;3.50;;;;;;;15.06;64.82;100263.08;129200;1262;114929;-63
2023/10/07 01:50:44;;;;;;;7.00;3.60;;;;;;;15.06;64.79;100263.65;129198;1268;114751;-62
2023/10/07 01:53:46;;;;;;;5.90;3.50;;;;;;;15.05;64.73;100266.88;129539;1262;128759;-63
2023/10/07 01:56:55;;;;;;;8.90;3.30;;;;;;;15.06;65.02;100273.35;129674;1262;114843;-64
2023/10/07 01:59:58;;;;;;;7.00;3.80;;;;;;;15.05;64.85;100280.39;129590;1273;114725;-65
2023/10/07 02:03:03;;;;;;;7.30;3.60;;;;;;;15.04;64.99;100276.16;129476;1265;114962;-63
2023/10/07 02:06:09;;;;;;;8.90;3.40;;;;;;;15.03;65.26;100279.81;129513;1262;114924;-63
2023/10/07 02:09:11;;;;;;;5.70;3.40;;;;;;;15.03;65.28;100278.03;129466;1279;129011;-63
2023/10/07 02:12:18;;;;;;;6.90;3.80;;;;;;;15.01;65.34;100276.66;129809;1259;114759;-62
2023/10/07 02:15:26;;;;;;;5.50;3.30;;;;;;;15.01;65.47;100266.46;129823;1254;115229;-61
2023/10/07 02:18:35;;;;;;;6.70;3.60;;;;;;;15.00;65.61;100261.10;130046;1254;114731;-62
2023/10/07 02:21:48;;;;;;;5.20;3.70;;;;;;;15.00;65.58;100260.41;130000;1257;114811;-65
2023/10/07 02:25:07;;;;;;;12.20;4.10;;;;;;;14.99;65.55;100250.92;129901;1275;128678;-63
2023/10/07 02:28:10;;;;;;;7.40;3.20;;;;;;;14.98;65.91;100254.92;129999;1275;116352;-64
2023/10/07 02:31:42;;;;;;;6.40;3.10;;;;;;;14.98;66.15;100247.41;129832;1259;114765;-62
2023/10/07 02:34:56;;;;;;;6.20;3.60;;;;;;;14.98;66.11;100251.92;130019;1256;114794;-63
2023/10/07 02:38:04;;;;;;;8.60;4.20;;;;;;;14.96;66.15;100242.15;130087;1275;115375;-63
2023/10/07 02:41:16;;;;;;;6.30;3.40;;;;;;;14.94;66.22;100234.04;130023;1275;128987;-62
2023/10/07 02:44:27;;;;;;;8.00;4.30;;;;;;;14.92;66.59;100233.27;129803;1261;115256;-61
2023/10/07 02:47:35;;;;;;;7.00;3.60;;;;;;;14.89;66.52;100238.81;129648;1259;114910;-62
2023/10/07 02:51:06;;;;;;;6.70;3.10;;;;;;;14.86;66.48;100231.70;129754;1259;114831;-64
2023/10/07 02:54:43;;;;;;;9.60;3.60;;;;;;;14.84;66.63;100227.70;129687;1259;114885;-64
2023/10/07 02:57:39;;;;;;;6.70;3.60;;;;;;;14.83;67.05;100225.98;129772;1275;129290;-61
2023/10/07 03:00:49;;;;;;;5.90;2.90;;;;;;;14.81;67.11;100225.56;129740;1278;114888;-61
2023/10/07 03:03:57;;;;;;;8.40;3.40;;;;;;;14.81;67.22;100222.31;129698;1259;114796;-66
2023/10/07 03:07:13;;;;;;;5.40;3.20;;;;;;;14.81;67.45;100221.23;129583;1274;114824;-62
2023/10/07 03:10:17;;;;;;;7.20;3.20;;;;;;;14.81;67.38;100227.00;129633;1269;114872;-69
2023/10/07 03:13:28;;;;;;;8.20;3.60;;;;;;;14.82;67.73;100226.02;129553;1260;127555;-61
2023/10/07 03:16:59;;;;;;;6.50;3.40;;;;;;;14.82;67.76;100228.34;129441;1277;115160;-67
2023/10/07 03:24:13;;;;;;;6.60;3.30;;;;;;;14.82;68.07;100220.09;129458;1262;115193;-70
2023/10/07 03:27:54;;;;;;;7.10;3.20;;;;;;;14.81;68.07;100221.46;129397;1269;114701;-73
2023/10/07 03:31:32;;;;;;;;;;;;;;;;;;;;;
2023/10/07 03:35:35;;;;;;;;;;;;;;;;;;;;;
2023/10/07 03:43:08;;;;;;;5.20;2.90;;;;;;;14.66;68.59;100218.27;128003;1276;114990;-60
2023/10/07 03:46:33;;;;;;;7.00;3.60;;;;;;;14.60;68.56;100211.85;128068;1294;115071;-61
2023/10/07 03:54:10;;;;;;;;;;;;;;;;;;;;;
2023/10/07 03:57:41;;;;;;;5.30;3.00;;;;;;;14.52;69.30;100208.61;129148;1288;128970;-61
2023/10/07 04:01:32;;;;;;;4.50;2.90;;;;;;;14.50;69.42;100203.91;128404;1288;115190;-60
2023/10/07 04:05:03;;;;;;;6.40;3.60;;;;;;;14.49;69.61;100206.13;128962;1270;114735;-60
2023/10/07 04:08:32;;;;;;;6.00;3.50;;;;;;;14.48;69.73;100215.38;124586;1294;5413321;-61
2023/10/07 04:12:15;;;;;;;7.80;3.70;;;;;;;14.48;69.92;100211.95;128643;1289;114888;-61
2023/10/07 04:15:51;;;;;;;5.50;3.10;;;;;;;14.49;70.11;100213.30;127767;1284;129557;-60
2023/10/07 04:23:00;;;;;;;7.20;3.50;;;;;;;14.54;70.15;100210.64;127693;1290;114896;-60
2023/10/07 04:26:32;;;;;;;;;;;;;;;;;;;;;
2023/10/07 04:30:00;;;;;;;5.80;3.00;;;;;;;14.61;70.20;100214.64;128043;1292;114837;-61
2023/10/07 04:33:26;;;;;;;;;;;;;;;14.67;70.15;100208.35;127733;1286;128941;-62
2023/10/07 04:46:21;;;;;;;8.50;2.90;;;;;;;14.92;70.33;100202.30;127589;1297;115072;-60
2023/10/07 04:49:18;;;;;;;10.50;3.20;;;;;;;15.03;70.47;100203.16;127507;1298;114955;-61
2023/10/07 04:53:17;;;;;;;;;;;;;;;;;;;;;
2023/10/07 04:57:42;;;;;;;7.70;2.80;;;;;;;15.24;70.24;100198.52;127809;1284;115517;-61
2023/10/07 05:09:55;;;;;;;5.50;2.60;;;;;;;15.50;70.30;100193.60;126376;1304;115633;-61
2023/10/07 05:13:48;;;;;;;5.10;2.60;;;;;;;15.57;70.23;100194.52;126428;1292;128863;-60
2023/10/07 05:17:21;;;;;;;;;;;;;;;;;;;;;
2023/10/07 05:21:06;;;;;;;5.60;2.60;;;;;;;15.69;70.55;100191.54;125850;1301;114999;-60
2023/10/07 05:24:51;;;;;;;6.30;2.50;;;;;;;15.75;70.58;100193.39;125869;1298;115524;-60
2023/10/07 05:28:54;;;;;;;6.00;2.70;;;;;;;15.81;70.44;100195.48;125573;1289;115076;-60
2023/10/07 05:32:35;;;;;;;3.60;2.20;;;;;;;15.88;70.59;100187.96;125928;1314;129654;-61
2023/10/07 05:36:32;;;;;;;7.90;3.10;;;;;;;15.94;70.70;100182.66;125410;1318;115448;-63
2023/10/07 05:40:24;;;;;;;;;;;;;;;;;;;;;
2023/10/07 05:43:48;;;;;;;6.70;2.60;;;;;;;16.08;70.83;100179.11;125385;1298;115490;-60
2023/10/07 05:47:09;;;;;;;6.60;2.70;;;;;;;16.15;70.87;100170.84;125381;1304;114836;-62
2023/10/07 05:50:12;;;;;;;8.40;3.00;;;;;;;16.21;70.82;100173.27;125539;1317;128760;-60
2023/10/07 05:54:12;;;;;;;9.80;2.60;;;;;;;16.27;70.61;100170.17;125726;1301;115506;-61
2023/10/07 05:57:09;;;;;;;6.90;2.60;;;;;;;16.33;70.66;100168.28;125701;1308;114984;-61
2023/10/07 06:01:36;;;;;;;8.30;2.80;;;;;;;16.38;70.62;100172.58;126431;1293;114837;-60
2023/10/07 06:04:38;;;;;;;10.00;4.00;;;;;;;16.43;70.44;100171.30;126847;1306;114849;-61
2023/10/07 06:08:10;;;;;;;;;;;;;;;;;;;;;
2023/10/07 06:11:59;;;;;;;;;;;;;;;;;;;;;
2023/10/07 06:15:35;;;;;;;4.90;2.90;;;;;;;16.57;69.94;100177.77;128148;1277;115356;-60
2023/10/07 06:18:43;;;;;;;5.10;2.80;;;;;;;16.61;69.84;100196.81;128006;1296;114919;-59
2023/10/07 06:21:52;;;;;;;6.40;3.00;;;;;;;16.64;69.67;100206.51;129314;1264;114794;-61
2023/10/07 06:25:00;;;;;;;7.70;3.10;;;;;;;16.65;69.54;100215.20;129381;1282;128896;-63
2023/10/07 06:28:43;;;;;;;;;;;;;;;;;;;;;
2023/10/07 06:35:36;;;;;;;6.50;3.00;;;;;;;16.81;69.63;100217.80;129364;1263;116553;-60
2023/10/07 06:38:52;;;;;;;7.20;2.60;;;;;;;16.86;69.66;100221.75;129448;1282;114883;-61
2023/10/07 06:42:05;;;;;;;4.40;2.80;;;;;;;16.90;69.53;100218.20;129245;1274;128503;-61
2023/10/07 06:45:19;;;;;;;8.40;2.80;;;;;;;16.98;69.61;100217.98;129436;1264;115505;-60
2023/10/07 06:48:56;;;;;;;8.40;3.60;;;;;;;17.14;69.61;100214.96;129493;1260;114814;-61
2023/10/07 06:52:17;;;;;;;4.90;2.80;;;;;;;17.40;69.59;100215.64;128873;1276;115002;-61
2023/10/07 06:55:36;;;;;;;;;;;;;;;;;;;;;
2023/10/07 06:58:43;;;;;;;6.00;3.10;;;;;;;17.90;69.28;100196.39;129256;1268;128861;-60
2023/10/07 07:01:54;;;;;;;8.20;2.50;;;;;;;18.13;68.88;100195.10;129010;1285;115354;-61
2023/10/07 07:04:56;;;;;;;5.40;2.70;;;;;;;18.44;68.55;100192.17;129350;1264;114907;-59
2023/10/07 07:08:09;;;;;;;5.50;2.70;;;;;;;18.71;68.16;100190.21;129103;1276;114936;-78
2023/10/07 07:11:16;;;;;;;5.30;2.90;;;;;;;18.93;67.75;100188.58;129182;1269;114870;-74
2023/10/07 07:14:28;;;;;;;6.30;2.50;;;;;;;19.16;67.57;100187.14;129260;1267;128843;-61
2023/10/07 07:17:43;;;;;;;6.50;2.70;;;;;;;19.41;67.23;100193.82;129102;1269;115431;-59
2023/10/07 07:24:09;;;;;;;5.90;2.80;;;;;;;20.11;66.63;100191.07;129398;1268;114953;-70
2023/10/07 07:27:17;;;;;;;5.80;2.20;;;;;;;20.39;65.96;100197.17;129277;1286;114924;-60
2023/10/07 07:30:33;;;;;;;2.70;2.00;;;;;;;20.62;65.54;100188.13;130060;1265;129194;-72
2023/10/07 07:33:47;;;;;;;5.10;2.60;;;;;;;20.82;65.21;100181.55;129788;1277;115163;-62
2023/10/07 07:37:02;;;;;;;4.60;2.50;;;;;;;21.08;64.62;100189.29;129804;1257;115443;-61
2023/10/07 07:40:28;;;;;;;7.30;3.00;;;;;;;21.26;63.94;100194.72;129786;1260;114761;-60
2023/10/07 07:43:58;;;;;;;6.00;2.30;;;;;;;21.33;63.47;100201.45;129957;1270;114733;-61
2023/10/07 07:47:05;;;;;;;5.10;2.70;;;;;;;21.42;63.46;100195.36;129605;1261;128083;-61
2023/10/07 07:50:08;;;;;;;6.20;2.50;;;;;;;21.63;62.96;100189.85;129985;1267;115188;-61
2023/10/07 07:53:17;;;;;;;6.00;2.80;;;;;;;21.82;62.54;100186.52;130278;1255;115160;-61
2023/10/07 07:56:22;;;;;;;6.00;3.00;;;;;;;21.83;61.84;100181.89;129854;1258;117186;-60
2023/10/07 07:59:32;;;;;;;4.60;2.30;;;;;;;21.78;61.57;100190.05;130408;1257;114697;-59
2023/10/07 08:03:24;;;;;;;8.80;2.80;;;;;;;21.78;61.38;100196.61;130190;1266;128799;-60
2023/10/07 08:06:35;;;;;;;4.70;2.80;;;;;;;21.82;61.32;100192.55;130027;1276;115217;-60
2023/10/07 08:10:02;;;;;;;;;;;;;;;;;;;;;
2023/10/07 08:13:20;;;;;;;3.90;2.50;;;;;;;22.02;60.92;100191.14;129708;1263;114724;-62
2023/10/07 08:16:26;;;;;;;4.40;2.50;;;;;;;22.11;60.87;100184.81;130122;1274;114775;-60
2023/10/07 08:19:42;;;;;;;4.30;2.40;;;;;;;22.29;60.83;100189.78;130156;1256;127784;-59
2023/10/07 08:23:00;;;;;;;3.90;2.40;;;;;;;22.57;60.42;100190.24;130105;1274;115305;-61
2023/10/07 08:26:26;;;;;;;4.10;2.30;;;;;;;22.76;59.84;100189.86;130045;1257;115032;-61
2023/10/07 08:29:40;;;;;;;7.70;2.30;;;;;;;22.86;59.39;100187.42;130035;1260;115177;-61
2023/10/07 08:32:56;;;;;;;4.00;2.20;;;;;;;22.94;59.30;100180.99;130335;1258;114680;-61
2023/10/07 08:36:09;;;;;;;;;;;;;;;;;;;;;
2023/10/07 08:39:43;;;;;;;;;;;;;;;;;;;;;
2023/10/07 08:42:48;;;;;;;5.40;2.90;;;;;;;22.76;58.73;100186.23;129928;1251;114790;-61
2023/10/07 08:46:01;;;;;;;3.60;2.30;;;;;;;22.71;58.89;100182.40;130119;1275;114686;-61
2023/10/07 08:49:15;;;;;;;4.30;2.40;;;;;;;22.68;58.79;100186.55;130135;1257;114721;-61
2023/10/07 08:52:42;;;;;;;5.70;2.90;;;;;;;22.53;58.40;100183.92;129983;1261;127592;-60
2023/10/07 08:55:46;;;;;;;5.50;2.70;;;;;;;22.39;58.65;100189.03;129660;1275;114832;-60
2023/10/07 08:58:52;;;;;;;4.80;2.10;;;;;;;22.25;58.49;100188.48;130172;1254;114753;-60
2023/10/07 09:02:00;;;;;;;4.90;2.20;;;;;;;22.10;58.45;100190.51;130330;1257;114737;-60
2023/10/07 09:05:20;;;;;;;;;;;;;;;;;;;;;
2023/10/07 09:08:38;;;;;;;3.00;2.50;;;;;;;21.72;58.27;100193.75;129734;1273;128895;-60
2023/10/07 09:11:41;;;;;;;5.70;2.40;;;;;;;21.56;58.81;100198.33;130126;1258;115295;-61
2023/10/07 09:15:03;;;;;;;4.40;2.10;;;;;;;21.42;58.82;100197.16;130141;1273;114821;-61
2023/10/07 09:18:10;;;;;;;5.30;2.40;;;;;;;21.27;58.86;100192.77;130225;1276;115110;-60
2023/10/07 09:21:19;;;;;;;5.10;2.50;;;;;;;21.14;59.10;100199.66;130211;1264;114807;-60
2023/10/07 09:24:27;;;;;;;6.00;2.40;;;;;;;21.05;59.26;100196.16;130221;1256;128280;-65
2023/10/07 09:28:38;;;;;;;6.70;2.30;;;;;;;21.00;59.43;100195.56;130619;1256;115123;-64
2023/10/07 09:32:23;;;;;;;5.80;2.70;;;;;;;20.93;59.66;100196.92;130457;1257;114714;-65
2023/10/07 09:35:19;;;;;;;9.40;2.60;;;;;;;20.83;60.00;100191.30;129694;1265;114799;-64
2023/10/07 09:38:34;;;;;;;9.50;2.50;;;;;;;20.74;59.92;100196.81;129806;1263;114884;-63
2023/10/07 09:42:56;;;;;;;5.10;2.80;;;;;;;20.67;60.18;100198.55;129321;1264;128479;-64
2023/10/07 09:46:52;;;;;;;4.40;2.50;;;;;;;20.59;60.40;100200.80;129656;1270;116510;-64
2023/10/07 09:49:33;;;;;;;7.20;3.10;;;;;;;20.53;60.73;100200.98;128937;1274;114813;-64
2023/10/07 09:53:14;;;;;;;8.80;2.70;;;;;;;20.49;60.69;100202.11;129475;1288;114804;-65
2023/10/07 09:56:38;;;;;;;6.50;2.70;;;;;;;20.45;61.03;100204.76;129482;1271;114784;-65
2023/10/07 10:00:38;;;;;;;6.00;2.80;;;;;;;20.43;61.26;100201.17;129416;1270;128092;-64
2023/10/07 10:04:03;;;;;;;7.50;3.20;;;;;;;20.39;61.43;100209.71;129429;1265;115202;-65
2023/10/07 10:07:32;;;;;;;6.20;2.90;;;;;;;20.38;61.46;100210.89;129727;1265;114828;-63
2023/10/07 10:10:44;;;;;;;3.60;2.50;;;;;;;20.38;61.64;100206.73;129830;1262;114854;-65
2023/10/07 10:14:19;;;;;;;5.30;2.80;;;;;;;20.42;61.64;100208.72;129539;1267;114793;-66
2023/10/07 10:17:47;;;;;;;5.20;2.40;;;;;;;20.44;61.46;100213.63;129707;1263;129327;-65
2023/10/07 10:21:14;;;;;;;4.90;2.60;;;;;;;20.41;61.13;100211.48;129567;1267;114836;-65
2023/10/07 10:24:23;;;;;;;5.60;2.50;;;;;;;20.40;61.30;100218.47;129988;1260;114731;-65
2023/10/07 10:27:31;;;;;;;6.90;2.30;;;;;;;20.41;61.37;100225.90;130477;1260;114712;-67
2023/10/07 10:30:54;;;;;;;4.40;2.70;;;;;;;20.38;61.39;100225.55;130542;1256;114738;-66
2023/10/07 10:34:05;;;;;;;3.60;2.20;;;;;;;20.37;61.24;100215.75;130539;1256;128394;-66
2023/10/07 10:37:12;;;;;;;10.70;2.90;;;;;;;20.36;61.29;100211.77;130530;1275;115301;-66
2023/10/07 10:40:19;;;;;;;4.20;2.60;;;;;;;20.38;61.32;100216.30;130359;1256;115109;-67
2023/10/07 10:43:28;;;;;;;3.80;2.30;;;;;;;20.40;61.42;100221.83;130177;1259;114882;-70
2023/10/07 10:46:52;;;;;;;8.70;3.10;;;;;;;20.40;61.25;100219.45;130472;1254;114761;-70
2023/10/07 10:50:02;;;;;;;5.90;2.80;;;;;;;20.35;61.18;100223.99;130475;1275;128828;-69
2023/10/07 10:53:09;;;;;;;3.40;2.20;;;;;;;20.33;61.27;100228.07;130466;1254;114798;-68
2023/10/07 10:56:14;;;;;;;6.80;2.40;;;;;;;20.35;61.40;100224.95;130652;1257;115034;-71
2023/10/07 10:59:34;;;;;;;3.70;2.60;;;;;;;20.43;61.15;100202.46;130591;1257;114708;-68
2023/10/07 11:02:42;;;;;;;5.30;2.90;;;;;;;20.56;61.28;100197.11;130461;1257;114715;-68
2023/10/07 11:05:57;;;;;;;7.70;2.80;;;;;;;20.70;61.39;100202.84;130279;1251;127868;-67
2023/10/07 11:09:18;;;;;;;6.60;3.20;;;;;;;20.85;61.18;100201.49;130611;1275;116070;-70
2023/10/07 11:12:32;;;;;;;4.10;2.50;;;;;;;20.95;61.11;100190.73;130528;1256;115135;-68
2023/10/07 11:16:16;;;;;;;9.90;2.80;;;;;;;21.07;60.94;100184.34;130599;1256;114747;-68
2023/10/07 11:19:24;;;;;;;5.10;3.10;;;;;;;21.30;61.08;100173.09;130142;1251;114741;-69
2023/10/07 11:22:39;;;;;;;5.80;2.60;;;;;;;21.50;60.79;100175.48;130442;1273;127506;-72
2023/10/07 11:25:42;;;;;;;5.30;3.20;;;;;;;21.62;60.53;100179.19;130581;1256;115236;-67
2023/10/07 11:28:51;;;;;;;4.90;3.20;;;;;;;21.68;60.10;100174.80;130649;1267;114692;-66
2023/10/07 11:32:04;;;;;;;3.90;2.30;;;;;;;21.67;59.98;100175.86;130584;1257;114682;-70
2023/10/07 11:35:20;;;;;;;3.10;2.30;;;;;;;21.63;59.94;100184.63;130479;1275;114776;-69
2023/10/07 11:38:27;;;;;;;6.90;2.40;;;;;;;21.62;60.01;100193.59;130420;1255;128882;-69
2023/10/07 11:41:31;;;;;;;5.50;2.70;;;;;;;21.54;59.69;100196.91;130552;1256;115214;-66
2023/10/07 11:44:33;;;;;;;4.10;2.60;;;;;;;21.41;59.79;100201.77;130111;1254;114813;-68
2023/10/07 11:47:36;;;;;;;6.60;2.60;;;;;;;21.24;59.66;100192.29;130530;1254;114744;-68
2023/10/07 11:50:50;;;;;;;4.60;2.30;;;;;;;21.05;59.65;100185.95;130582;1256;114775;-67
2023/10/07 11:53:55;;;;;;;6.10;2.70;;;;;;;20.88;59.97;100195.70;130688;1255;127811;-67
2023/10/07 11:57:43;;;;;;;7.30;2.80;;;;;;;20.75;60.29;100190.58;130581;1256;114855;-68
2023/10/07 12:00:48;;;;;;;6.50;2.70;;;;;;;20.63;60.52;100188.80;129818;1259;115073;-71
2023/10/07 12:04:44;;;;;;;;;;;;;;;;;;;;;
2023/10/07 12:08:19;;;;;;;;;;;;;;;;;;;;;
2023/10/07 12:12:08;;;;;;;;;;;;;;;;;;;;;
2023/10/07 12:15:43;;;;;;;5.60;3.10;;;;;;;20.35;61.47;100183.45;127935;1302;116531;-68
2023/10/07 12:19:19;;;;;;;5.10;2.50;;;;;;;20.37;61.69;100178.69;127651;1302;114911;-68
2023/10/07 12:23:23;;;;;;;5.00;3.00;;;;;;;20.37;61.85;100176.86;127871;1283;114871;-70
2023/10/07 12:26:28;;;;;;;3.40;2.40;;;;;;;20.45;62.17;100177.74;126792;1299;114875;-67
2023/10/07 12:30:07;;;;;;;3.00;2.40;;;;;;;20.51;62.05;100168.11;126831;1285;128771;-68
2023/10/07 12:33:50;;;;;;;8.20;2.60;;;;;;;20.52;62.00;100165.91;126953;1290;115250;-66
2023/10/07 12:37:59;;;;;;;;;;;;;;;;;;;;;
2023/10/07 12:41:28;;;;;;;4.50;2.50;;;;;;;20.47;62.36;100150.04;127234;1283;114926;-70
2023/10/07 12:44:30;;;;;;;4.70;2.60;;;;;;;20.41;62.43;100146.71;127560;1280;114970;-63
2023/10/07 12:47:39;;;;;;;5.10;3.20;;;;;;;20.34;62.61;100151.77;128166;1278;115050;-70
2023/10/07 12:50:44;;;;;;;5.70;2.90;;;;;;;20.29;62.81;100149.67;128977;1287;115301;-65
2023/10/07 12:53:55;;;;;;;4.60;2.70;;;;;;;20.22;62.73;100157.42;129667;1260;114998;-68
2023/10/07 12:57:09;;;;;;;5.30;2.50;;;;;;;20.14;62.79;100158.62;129288;1266;114905;-68
2023/10/07 13:00:22;;;;;;;4.40;2.70;;;;;;;20.07;62.91;100158.46;129792;1263;116388;-66
2023/10/07 13:03:33;;;;;;;7.20;2.50;;;;;;;20.01;63.14;100158.08;130126;1273;128958;-66
2023/10/07 13:06:42;;;;;;;15.40;3.20;;;;;;;19.95;63.24;100153.58;130657;1254;114808;-62
2023/10/07 13:09:56;;;;;;;;;;;;;;;;;;;;;
2023/10/07 13:13:04;;;;;;;8.00;2.70;;;;;;;19.83;63.68;100138.61;129979;1251;115639;-67
2023/10/07 13:16:10;;;;;;;5.40;2.70;;;;;;;19.80;63.76;100140.52;130560;1273;114731;-68
2023/10/07 13:19:16;;;;;;;6.30;2.20;;;;;;;19.75;63.92;100139.38;130593;1255;127512;-72
2023/10/07 13:22:19;;;;;;;4.90;3.20;;;;;;;19.69;64.06;100140.48;130617;1251;115146;-68
2023/10/07 13:25:33;;;;;;;4.90;3.00;;;;;;;19.64;64.25;100134.20;130371;1256;114843;-69
2023/10/07 13:28:39;;;;;;;5.70;2.60;;;;;;;19.58;64.44;100133.05;130340;1270;114725;-70
2023/10/07 13:31:46;;;;;;;6.60;2.90;;;;;;;19.52;64.46;100130.36;130348;1251;114837;-68
2023/10/07 13:34:48;;;;;;;4.80;3.00;;;;;;;19.44;64.50;100129.98;130593;1256;128915;-68
2023/10/07 13:37:56;;;;;;;7.70;3.10;;;;;;;19.39;64.74;100121.35;130429;1256;115183;-67
2023/10/07 13:41:08;;;;;;;6.80;3.10;;;;;;;19.38;64.92;100115.63;130554;1251;114750;-68
2023/10/07 13:44:22;;;;;;;6.90;3.30;;;;;;;19.37;64.95;100108.15;130496;1255;114772;-68
2023/10/07 13:47:31;;;;;;;5.90;3.30;;;;;;;19.37;65.07;100101.26;130496;1274;114769;-70
2023/10/07 13:50:44;;;;;;;5.90;3.00;;;;;;;19.37;65.41;100096.02;130504;1257;129127;-68
2023/10/07 13:54:22;;;;;;;6.50;2.80;;;;;;;19.37;65.38;100093.34;130605;1254;115176;-71
2023/10/07 13:57:27;;;;;;;7.20;3.00;;;;;;;19.37;65.59;100091.31;130599;1253;114760;-70
2023/10/07 14:00:38;;;;;;;5.20;3.00;;;;;;;19.39;65.79;100090.74;130407;1251;114701;-69
2023/10/07 14:03:40;;;;;;;3.80;2.80;;;;;;;19.43;65.84;100086.95;130513;1266;114760;-70
2023/10/07 14:07:04;;;;;;;5.80;2.80;;;;;;;19.46;65.98;100082.33;130509;1251;114796;-68
2023/10/07 14:10:09;;;;;;;6.00;2.80;;;;;;;19.47;66.01;100073.98;130507;1266;115205;-67
2023/10/07 14:13:23;;;;;;;3.40;2.40;;;;;;;19.45;66.06;100066.48;130636;1251;114728;-66
2023/10/07 14:16:38;;;;;;;3.90;3.20;;;;;;;19.42;66.07;100067.46;130564;1255;114727;-68
2023/10/07 14:19:50;;;;;;;5.30;2.90;;;;;;;19.39;66.18;100057.42;130654;1274;114718;-68
2023/10/07 14:22:59;;;;;;;4.10;2.60;;;;;;;19.37;66.42;100047.00;130079;1251;128503;-70
2023/10/07 14:26:34;;;;;;;3.70;2.30;;;;;;;19.33;66.40;100045.64;130147;1275;115268;-71
2023/10/07 14:30:37;;;;;;;4.00;2.50;;;;;;;19.28;66.78;100047.91;130465;1275;114793;-69
2023/10/07 14:33:35;;;;;;;;;;;;;;;;;;;;;
2023/10/07 14:37:21;;;;;;;7.40;2.70;;;;;;;19.14;67.08;100050.27;130171;1254;114863;-69
2023/10/07 14:40:38;;;;;;;3.90;2.80;;;;;;;19.09;67.41;100054.52;130081;1257;127850;-68
2023/10/07 14:44:03;;;;;;;;;;;;;;;;;;;;;
2023/10/07 14:47:38;;;;;;;5.00;2.90;;;;;;;18.99;68.13;100049.27;130484;1256;115076;-66
2023/10/07 14:51:12;;;;;;;4.00;2.50;;;;;;;18.92;68.43;100053.48;130382;1254;115080;-65
2023/10/07 14:54:17;;;;;;;6.50;1.90;;;;;;;18.86;68.66;100054.13;130340;1251;114733;-65
2023/10/07 14:57:45;;;;;;;6.00;2.60;;;;;;;18.82;69.07;100050.55;130289;1273;126980;-65
2023/10/07 15:01:32;;;;;;;5.40;2.80;;;;;;;18.77;69.46;100055.50;130183;1251;115182;-64
2023/10/07 15:04:53;;;;;;;9.80;2.80;;;;;;;18.71;69.82;100060.35;130084;1251;114757;-65
2023/10/07 15:08:30;;;;;;;5.80;2.90;;;;;;;18.67;70.29;100065.70;130156;1266;114796;-66
2023/10/07 15:11:44;;;;;;;7.00;2.90;;;;;;;18.62;71.03;100071.23;130613;1256;114728;-65
2023/10/07 15:15:14;;;;;;;5.80;3.50;;;;;;;18.53;71.63;100072.57;130319;1252;127858;-65
2023/10/07 15:18:54;;;;;;;6.90;2.50;;;;;;;18.44;72.16;100071.94;129673;1261;115548;-66
2023/10/07 15:22:39;;;;;;;7.10;2.60;;;;;;;18.33;72.96;100083.66;129456;1270;114907;-67
2023/10/07 15:26:36;;;;;;;6.30;2.50;;;;;;;18.21;73.71;100082.17;129418;1270;115747;-66
2023/10/07 15:30:19;;;;;;;4.70;3.20;;;;;;;18.07;74.42;100080.66;129203;1267;114842;-63
2023/10/07 15:33:57;;;;;;;6.10;2.30;;;;;;;17.95;75.19;100080.90;129201;1286;129346;-64
2023/10/07 15:37:17;;;;;;;6.50;3.10;;;;;;;17.85;75.63;100081.37;128956;1277;115334;-66
2023/10/07 15:41:13;;;;;;;5.10;3.00;;;;;;;17.78;76.18;100081.04;129095;1268;114905;-66
2023/10/07 15:45:03;;;;;;;5.60;2.40;;;;;;;17.71;76.69;100084.91;129214;1267;114854;-66
2023/10/07 15:48:40;;;;;;;9.20;2.70;;;;;;;17.64;77.06;100088.38;128375;1279;114855;-66
2023/10/07 15:52:00;;;;;;;;;;;;;;;;;;;;;
2023/10/07 15:59:30;;;;;;;7.90;3.20;;;;;;;17.43;78.44;100081.71;128958;1269;114808;-65
2023/10/07 16:02:39;;;;;;;4.40;2.30;;;;;;;17.37;78.94;100086.23;128997;1267;114931;-67
2023/10/07 16:05:54;;;;;;;7.70;3.40;;;;;;;17.34;79.35;100081.80;129343;1259;114946;-67
2023/10/07 16:09:17;;;;;;;;;;;;;;;17.31;79.59;100080.42;127585;1259;128798;-69
2023/10/07 16:12:38;;;;;;;5.70;2.90;;;;;;;17.27;80.05;100081.63;129473;1283;129099;-65
2023/10/07 16:15:55;;;;;;;6.40;2.90;;;;;;;17.23;80.43;100085.56;129716;1260;114910;-64
2023/10/07 16:19:09;;;;;;;5.50;2.80;;;;;;;17.19;80.74;100083.85;129788;1260;114804;-68
2023/10/07 16:22:37;;;;;;;6.30;3.40;;;;;;;17.17;81.05;100089.27;129604;1274;114847;-66
2023/10/07 16:26:04;;;;;;;;;;;;;;;;;;;;;
2023/10/07 16:29:21;;;;;;;6.60;3.40;;;;;;;17.10;81.85;100076.99;130205;1253;129056;-66
2023/10/07 16:32:49;;;;;;;6.50;3.10;;;;;;;17.08;82.14;100076.85;129990;1276;115137;-65
2023/10/07 16:36:20;;;;;;;4.50;3.10;;;;;;;17.04;82.17;100074.10;130269;1259;114705;-64
2023/10/07 16:39:37;;;;;;;8.20;3.20;;;;;;;16.99;82.46;100068.63;130257;1257;114725;-65
2023/10/07 16:42:54;;;;;;;6.30;3.90;;;;;;;16.96;82.68;100069.66;130233;1273;114724;-69